Gaschem Phoenix — ELUO6 — position and weather

sailwx.info

Track history (hours):
 
Tides and Currents Weather Stations Pressure Air Temp Water Temp Dewpoint Dewpoint Depression Visibility Wind Speed Wind Dir Waves Ship Positions

Gaschem Phoenix

Last reported at 2014-Jul-22 09:29 UTC. Time now 2014-Jul-24 03:58 UTC.
Position N 30°57' E 122°48'.

Length 100 m; draft 4.7 m.

Type: Ship. MMSI: 636090235.

Date/timePositionNaut miles runAvg speedWind from/ knotsBaromVisibWave heightAir tempDewpointWater temp
2014-Jul-22 09:29N 30°57' E 122°48'1212.3
2014-Jul-22 08:29N 30°53' E 122°35'1211.9
2014-Jul-22 07:31N 30°50' E 122°22'1111.8
2014-Jul-22 06:34N 30°40' E 122°15'1211.7
2014-Jul-22 05:31N 30°32' E 122°05'44 1.0
2014-Jul-20 11:04N 30°35' E 121°14'0 0.0
2014-Jul-20 07:16N 30°35' E 121°14'6 5.6
2014-Jul-20 06:17N 30°34' E 121°20'1012.9
2014-Jul-20 05:31N 30°32' E 121°31'1312.6
2014-Jul-20 04:32N 30°30' E 121°46'1211.8
2014-Jul-20 03:31N 30°32' E 121°60'1010.3
2014-Jul-20 02:34N 30°33' E 122°11'1111.4
2014-Jul-20 01:33N 30°44' E 122°16'9 9.2
2014-Jul-20 00:33N 30°51' E 122°23'10 9.5
2014-Jul-19 23:33N 30°53' E 122°34'1310.3
2014-Jul-19 22:20N 30°58' E 122°48'1110.4
2014-Jul-19 21:17N 31°03' E 122°59'1111.3
2014-Jul-19 20:19N 31°08' E 123°10'34912.1
2014-Jul-18 15:31N 33°47' E 129°18'  
2014-Jul-14 23:20N 30°59' E 122°46'1214.1
2014-Jul-14 22:28N 30°59' E 122°32'1516.3
2014-Jul-14 21:33N 31°03' E 122°15'2813.7
2014-Jul-14 19:32N 31°15' E 121°46'1212.0
2014-Jul-14 18:31N 31°23' E 121°35'7 7.7
2014-Jul-14 17:33N 31°27' E 121°28'9 9.4
2014-Jul-14 16:33N 31°33' E 121°19'1413.2
2014-Jul-14 15:29N 31°43' E 121°07'1212.7
2014-Jul-14 14:33N 31°48' E 120°55'1413.9
2014-Jul-14 13:33N 32°01' E 120°47'1414.0
2014-Jul-14 12:33N 32°02' E 120°31'1211.7
2014-Jul-14 11:33N 31°57' E 120°18'1110.6
2014-Jul-14 10:33N 31°57' E 120°05'1413.7
2014-Jul-14 09:34N 32°07' E 119°54'3 0.1
2014-Jul-12 14:16N 32°10' E 119°54'0 0.0
2014-Jul-12 13:28N 32°10' E 119°54'4 4.8
2014-Jul-12 12:33N 32°05' E 119°55'10 9.6
2014-Jul-12 11:33N 31°58' E 120°02'9 9.1
2014-Jul-12 10:33N 31°56' E 120°13'1010.0
2014-Jul-12 09:33N 32°01' E 120°23'  
Track history (hours):
 
Tides and Currents Weather Stations Pressure Air Temp Water Temp Dewpoint Dewpoint Depression Visibility Wind Speed Wind Dir Waves Ship Positions

Gaschem Phoenix

Last reported at 2014-Jul-22 09:29 UTC. Time now 2014-Jul-24 03:58 UTC.
Position N 30°57' E 122°48'.

Length 100 m; draft 4.7 m.

Type: Ship. MMSI: 636090235.

Date/timePositionNaut miles runAvg speedWind from/ knotsBaromVisibWave heightAir tempDewpointWater temp
2014-Jul-22 09:29N 30°57' E 122°48'1212.3
2014-Jul-22 08:29N 30°53' E 122°35'1211.9
2014-Jul-22 07:31N 30°50' E 122°22'1111.8
2014-Jul-22 06:34N 30°40' E 122°15'1211.7
2014-Jul-22 05:31N 30°32' E 122°05'44 1.0
2014-Jul-20 11:04N 30°35' E 121°14'0 0.0
2014-Jul-20 07:16N 30°35' E 121°14'6 5.6
2014-Jul-20 06:17N 30°34' E 121°20'1012.9
2014-Jul-20 05:31N 30°32' E 121°31'1312.6
2014-Jul-20 04:32N 30°30' E 121°46'1211.8
2014-Jul-20 03:31N 30°32' E 121°60'1010.3
2014-Jul-20 02:34N 30°33' E 122°11'1111.4
2014-Jul-20 01:33N 30°44' E 122°16'9 9.2
2014-Jul-20 00:33N 30°51' E 122°23'10 9.5
2014-Jul-19 23:33N 30°53' E 122°34'1310.3
2014-Jul-19 22:20N 30°58' E 122°48'1110.4
2014-Jul-19 21:17N 31°03' E 122°59'1111.3
2014-Jul-19 20:19N 31°08' E 123°10'34912.1
2014-Jul-18 15:31N 33°47' E 129°18'  
2014-Jul-14 23:20N 30°59' E 122°46'1214.1
2014-Jul-14 22:28N 30°59' E 122°32'1516.3
2014-Jul-14 21:33N 31°03' E 122°15'2813.7
2014-Jul-14 19:32N 31°15' E 121°46'1212.0
2014-Jul-14 18:31N 31°23' E 121°35'7 7.7
2014-Jul-14 17:33N 31°27' E 121°28'9 9.4
2014-Jul-14 16:33N 31°33' E 121°19'1413.2
2014-Jul-14 15:29N 31°43' E 121°07'1212.7
2014-Jul-14 14:33N 31°48' E 120°55'1413.9
2014-Jul-14 13:33N 32°01' E 120°47'1414.0
2014-Jul-14 12:33N 32°02' E 120°31'1211.7
2014-Jul-14 11:33N 31°57' E 120°18'1110.6
2014-Jul-14 10:33N 31°57' E 120°05'1413.7
2014-Jul-14 09:34N 32°07' E 119°54'3 0.1
2014-Jul-12 14:16N 32°10' E 119°54'0 0.0
2014-Jul-12 13:28N 32°10' E 119°54'4 4.8
2014-Jul-12 12:33N 32°05' E 119°55'10 9.6
2014-Jul-12 11:33N 31°58' E 120°02'9 9.1
2014-Jul-12 10:33N 31°56' E 120°13'1010.0
2014-Jul-12 09:33N 32°01' E 120°23'  

Dump ship's entire track history